Jacob Lake, Arizona
Current Conditions -  °F | °C
As of 3:55 PM on Monday 20 Oct 2014 (Local Time) from KAZC Reporting Station
Clear Clear  
Wind Chill: 78°   Ceiling: Unl
Heat Index: 78°   Visibility: 10mi
Dew Point: 38°   Wind: 9mph
Humidity: 24%   Direction: 170°S
Pressure: 30.04"   Gusts: NA
Location:  36.9484°N, 112.529°W
Report Text: KAZC 202255Z AUTO 17008KT 10SM CLR 26/04 A3004 RMK AO2 T02580035
Loading
Personal Weather Stations






























Interactive Weather Map New forecast layout! Learn more

10-Day Weather Forecast

Advertisements
Track Severe Weather on mobile